This is the latest recevied weather packets stored in our database for station/object VA2CPJ. If no packets are shown the sender has not sent any weather packets the latest 10 day(s).
| Time | Temp. | Humidity | Pressure | Rain* | Wind** | Luminosity | Snow |
|---|---|---|---|---|---|---|---|
| 1777492820 | 18.33° C | 42% | 1017.7 hPa | - | - | - | - |
| 1777491026 | 18.33° C | 42% | 1018.8 hPa | - | - | - | - |
| 1777490430 | 18.89° C | 41% | 1018.8 hPa | - | - | - | - |
| 1777489232 | 19.44° C | 38% | 1017.7 hPa | - | - | - | - |
| 1777489223 | 19.44° C | 38% | 1018.4 hPa | - | - | - | - |
| 1777488637 | 19.44° C | 37% | 1018.1 hPa | - | - | - | - |
| 1777487421 | 19.44° C | 37% | 1018.1 hPa | - | - | - | - |
| 1777486834 | 20° C | 36% | 1019.1 hPa | - | - | - | - |
| 1777484419 | 19.44° C | 35% | 1018.4 hPa | - | - | - | - |
| 1777483833 | 19.44° C | 36% | 1019.5 hPa | - | - | - | - |
| 1777483258 | 20.56° C | 35% | 1019.5 hPa | - | - | - | - |
| 1777481444 | 20° C | 35% | 1019.8 hPa | - | - | - | - |
| 1777481436 | 20° C | 35% | 1019.1 hPa | - | - | - | - |
| 1777479624 | 18.33° C | 37% | 1019.8 hPa | - | - | - | - |
| 1777479047 | 18.33° C | 37% | 1020.8 hPa | - | - | - | - |
| 1777479029 | 18.33° C | 37% | 1019.8 hPa | - | - | - | - |
| 1777477842 | 18.89° C | 36% | 1020.1 hPa | - | - | - | - |
| 1777476632 | 17.78° C | 38% | 1020.5 hPa | - | - | - | - |
| 1777476020 | 18.89° C | 36% | 1020.5 hPa | - | - | - | - |
| 1777475424 | 18.33° C | 37% | 1021.5 hPa | - | - | - | - |
| 1777471880 | 16.11° C | 39% | 1022.2 hPa | - | - | - | - |
| 1777471259 | 16.67° C | 38% | 1021.5 hPa | - | - | - | - |
| 1777469431 | 14.44° C | 42% | 1022.2 hPa | - | - | - | - |
| 1777467217 | 13.89° C | 43% | 1023.6 hPa | - | - | - | - |
| 1777467024 | 13.89° C | 42% | 1022.5 hPa | - | - | - | - |
* Rain since midnight (hover to see other rain measurements)
** Current wind speed in m/s (hover to see current wind gust speed)